Time;durP1;ratioP1;P1;durP2;ratioP2;P2;SDS_P1;SDS_P2;PMS_P1;PMS_P2;Temp;Humidity;BMP_temperature;BMP_pressure;BME280_temperature;BME280_humidity;BME280_pressure;Samples;Min_cycle;Max_cycle;Signal;HPM_P1;HPM_P2
2022/08/28 00:00:15;;;;;;;;;;;;;;;16.49;100.00;96851.81;30001;983;1876;-67
2022/08/28 00:00:46;;;;;;;;;;;;;;;16.50;100.00;96850.69;30001;983;1880;-66
2022/08/28 00:01:18;;;;;;;;;;;;;;;16.51;100.00;96851.47;30001;983;1876;-67
2022/08/28 00:01:49;;;;;;;;;;;;;;;16.51;100.00;96856.97;30001;983;1859;-66
2022/08/28 00:02:20;;;;;;;;;;;;;;;16.52;100.00;96851.16;30001;983;1872;-66
2022/08/28 00:02:51;;;;;;;;;;;;;;;16.54;100.00;96851.63;30001;983;1881;-65
2022/08/28 00:03:22;;;;;;;;;;;;;;;16.54;100.00;96851.63;30001;983;1876;-66
2022/08/28 00:03:53;;;;;;;;;;;;;;;16.55;100.00;96847.75;30001;983;1881;-67
2022/08/28 00:04:24;;;;;;;;;;;;;;;16.55;100.00;96847.75;30001;983;1819;-66
2022/08/28 00:04:55;;;;;;;;;;;;;;;16.56;100.00;96843.88;30001;982;1881;-66
2022/08/28 00:05:27;;;;;;;;;;;;;;;16.56;100.00;96843.88;30001;982;1877;-62
2022/08/28 00:05:59;;;;;;;;;;;;;;;16.57;100.00;96845.47;30001;982;1881;-65
2022/08/28 00:06:30;;;;;;;;;;;;;;;16.58;100.00;96857.25;30001;982;1855;-64
2022/08/28 00:07:02;;;;;;;;;;;;;;;16.57;100.00;96850.97;30001;982;1877;-67
2022/08/28 00:07:36;;;;;;;;;;;;;;;16.58;100.00;96847.09;30001;983;1876;-66
2022/08/28 00:08:08;;;;;;;;;;;;;;;16.59;100.00;96854.16;30001;983;1880;-65
2022/08/28 00:08:39;;;;;;;;;;;;;;;16.60;100.00;96849.50;30001;983;1854;-66
2022/08/28 00:09:11;;;;;;;;;;;;;;;16.61;100.00;96851.91;30001;983;1876;-66
2022/08/28 00:09:42;;;;;;;;;;;;;;;16.60;100.00;96850.28;30001;983;1876;-63
2022/08/28 00:10:14;;;;;;;;;;;;;;;16.62;100.00;96848.03;30001;983;1881;-66
2022/08/28 00:10:45;;;;;;;;;;;;;;;16.62;100.00;96853.50;30001;983;1876;-66
2022/08/28 00:11:16;;;;;;;;;;;;;;;16.63;100.00;96855.09;30001;982;1881;-65
2022/08/28 00:11:48;;;;;;;;;;;;;;;16.64;100.00;96855.91;30001;982;1877;-65
2022/08/28 00:12:19;;;;;;;;;;;;;;;16.65;100.00;96852.84;30001;982;1881;-64
2022/08/28 00:12:51;;;;;;;;;;;;;;;16.66;100.00;96854.44;30001;982;1877;-66
2022/08/28 00:13:24;;;;;;;;;;;;;;;16.66;100.00;96857.19;30001;982;1859;-66
2022/08/28 00:13:55;;;;;;;;;;;;;;;16.67;100.00;96853.31;30001;982;1850;-66
2022/08/28 00:14:26;;;;;;;;;;;;;;;16.67;100.00;96856.06;30001;982;1881;-67
2022/08/28 00:14:57;;;;;;;;;;;;;;;16.69;100.00;96847.50;30001;983;1876;-65
2022/08/28 00:15:32;;;;;;;;;;;;;;;16.69;100.00;96856.53;30001;983;1880;-67
2022/08/28 00:16:03;;;;;;;;;;;;;;;16.71;100.00;96856.19;30001;983;1876;-67
2022/08/28 00:16:34;;;;;;;;;;;;;;;16.71;100.00;96857.00;30001;983;1859;-66
2022/08/28 00:17:05;;;;;;;;;;;;;;;16.70;100.00;96854.59;30001;983;1872;-68
2022/08/28 00:17:36;;;;;;;;;;;;;;;16.70;100.00;96866.34;30001;983;1835;-67
2022/08/28 00:18:07;;;;;;;;;;;;;;;16.69;100.00;96853.00;30001;983;1872;-65
2022/08/28 00:18:38;;;;;;;;;;;;;;;16.68;100.00;96854.94;30001;983;1881;-65
2022/08/28 00:19:11;;;;;;;;;;;;;;;16.70;100.00;96857.34;30001;982;1855;-66
2022/08/28 00:19:42;;;;;;;;;;;;;;;16.69;100.00;96859.28;30001;982;1877;-66
2022/08/28 00:20:14;;;;;;;;;;;;;;;16.70;100.00;96866.34;30001;982;1877;-66
2022/08/28 00:20:46;;;;;;;;;;;;;;;16.71;100.00;96856.19;30001;982;1881;-67
2022/08/28 00:21:17;;;;;;;;;;;;;;;16.70;100.00;96865.56;30001;982;1877;-65
2022/08/28 00:21:47;;;;;;;;;;;;;;;16.71;100.00;96856.19;30001;982;1859;-65
2022/08/28 00:22:18;;;;;;;;;;;;;;;16.71;100.00;96859.75;30001;983;1872;-65
2022/08/28 00:22:49;;;;;;;;;;;;;;;16.72;100.00;96857.81;30001;983;1880;-66
2022/08/28 00:23:21;;;;;;;;;;;;;;;16.71;100.00;96862.47;30001;983;1876;-65
2022/08/28 00:23:52;;;;;;;;;;;;;;;16.73;100.00;96856.66;30001;983;1881;-65
2022/08/28 00:24:23;;;;;;;;;;;;;;;16.72;100.00;96861.34;30001;983;1854;-66
2022/08/28 00:24:54;;;;;;;;;;;;;;;16.73;100.00;96859.41;30001;983;1876;-67
2022/08/28 00:25:29;;;;;;;;;;;;;;;16.72;100.00;96855.06;30001;983;1876;-66
2022/08/28 00:26:00;;;;;;;;;;;;;;;16.72;100.00;96858.59;30001;983;1859;-67
2022/08/28 00:28:09;;;;;;;;;;;;;;;16.73;100.00;96860.22;30001;982;1855;-64
2022/08/28 00:28:40;;;;;;;;;;;;;;;16.72;100.00;96864.09;30001;982;1877;-66
2022/08/28 00:29:11;;;;;;;;;;;;;;;16.72;100.00;96860.53;30001;982;1877;-67
2022/08/28 00:29:43;;;;;;;;;;;;;;;16.72;100.00;96857.81;30001;982;1881;-67
2022/08/28 00:30:13;;;;;;;;;;;;;;;16.73;100.00;96853.94;30001;983;1854;-65
2022/08/28 00:30:48;;;;;;;;;;;;;;;16.73;100.00;96862.94;30001;983;1876;-66
2022/08/28 00:31:19;;;;;;;;;;;;;;;16.73;100.00;96857.47;30001;973;1895;-66
2022/08/28 00:31:50;;;;;;;;;;;;;;;16.74;100.00;96858.28;30001;983;1859;-67
2022/08/28 00:32:22;;;;;;;;;;;;;;;16.74;100.00;96861.00;30001;983;1872;-65
2022/08/28 00:32:54;;;;;;;;;;;;;;;16.73;100.00;96862.94;30001;983;1881;-63
2022/08/28 00:33:26;;;;;;;;;;;;;;;16.73;100.00;96856.66;30001;983;1877;-65
2022/08/28 00:33:57;;;;;;;;;;;;;;;16.74;100.00;96855.53;30001;982;1881;-65
2022/08/28 00:34:28;;;;;;;;;;;;;;;16.73;100.00;96854.72;30001;982;1853;-65
2022/08/28 00:35:00;;;;;;;;;;;;;;;16.75;100.00;96862.63;30001;982;1881;-66
2022/08/28 00:35:31;;;;;;;;;;;;;;;16.74;100.00;96861.81;30001;982;1877;-66
2022/08/28 00:36:03;;;;;;;;;;;;;;;16.75;100.00;96857.12;30001;982;1881;-65
2022/08/28 00:36:35;;;;;;;;;;;;;;;16.74;100.00;96861.81;30001;982;1877;-66
2022/08/28 00:37:08;;;;;;;;;;;;;;;16.74;100.00;96861.81;30001;982;1859;-66
2022/08/28 00:37:39;;;;;;;;;;;;;;;16.75;100.00;96862.63;30001;983;1850;-66
2022/08/28 00:38:11;;;;;;;;;;;;;;;16.74;100.00;96856.34;30001;983;1881;-65
2022/08/28 00:38:42;;;;;;;;;;;;;;;16.74;100.00;96861.81;30001;983;1876;-66
2022/08/28 00:39:13;;;;;;;;;;;;;;;16.74;100.00;96859.06;30001;983;1881;-61
2022/08/28 00:39:44;;;;;;;;;;;;;;;16.75;100.00;96863.41;30001;983;1775;-66
2022/08/28 00:40:17;;;;;;;;;;;;;;;16.78;100.00;96859.22;30001;983;1881;-65
2022/08/28 00:40:51;;;;;;;;;;;;;;;16.77;100.00;96865.84;30001;983;1877;-61
2022/08/28 00:41:22;;;;;;;;;;;;;;;16.77;100.00;96865.03;30001;983;1881;-67
2022/08/28 00:41:53;;;;;;;;;;;;;;;16.77;100.00;96851.31;30001;982;1877;-65
2022/08/28 00:42:23;;;;;;;;;;;;;;;16.78;100.00;96861.97;30001;982;1859;-65
2022/08/28 00:42:55;;;;;;;;;;;;;;;16.78;100.00;96858.41;30001;982;1872;-66
2022/08/28 00:43:40;;;;;;;;;;;;;;;16.78;100.00;96859.22;30001;982;1881;-65
2022/08/28 00:44:21;;;;;;;;;;;;;;;16.77;100.00;96857.59;30001;983;1876;-66
2022/08/28 00:44:52;;;;;;;;;;;;;;;16.80;100.00;96864.38;30001;983;1880;-66
2022/08/28 00:45:24;;;;;;;;;;;;;;;16.79;100.00;96863.56;30001;983;1876;-65
2022/08/28 00:45:55;;;;;;;;;;;;;;;16.79;100.00;96851.78;30001;983;1881;-66
2022/08/28 00:46:25;;;;;;;;;;;;;;;16.79;100.00;96863.56;30001;983;1854;-66
2022/08/28 00:46:58;;;;;;;;;;;;;;;16.77;100.00;96857.59;30001;983;1876;-65
2022/08/28 00:47:29;;;;;;;;;;;;;;;16.79;100.00;96862.75;30001;983;1876;-66
2022/08/28 00:48:00;;;;;;;;;;;;;;;16.79;100.00;96862.75;30001;983;1881;-66
2022/08/28 00:48:33;;;;;;;;;;;;;;;16.79;100.00;96857.28;30001;983;1877;-65
2022/08/28 00:49:05;;;;;;;;;;;;;;;16.79;100.00;96858.09;30001;982;1881;-65
2022/08/28 00:49:39;;;;;;;;;;;;;;;16.80;100.00;96858.88;30001;982;1877;-66
2022/08/28 00:50:16;;;;;;;;;;;;;;;16.81;100.00;96857.75;30001;982;1859;-67
2022/08/28 00:52:26;;;;;;;;;;;;;;;16.82;100.00;96859.34;30001;983;1876;-63
2022/08/28 00:52:59;;;;;;;;;;;;;;;16.82;100.00;96856.62;30001;983;1880;-66
2022/08/28 00:53:30;;;;;;;;;;;;;;;16.82;100.00;96856.62;30001;983;1876;-64
2022/08/28 00:54:02;;;;;;;;;;;;;;;16.82;100.00;96851.94;30001;983;1859;-66
2022/08/28 00:54:35;;;;;;;;;;;;;;;16.83;100.00;96858.22;30001;983;1872;-66
2022/08/28 00:55:09;;;;;;;;;;;;;;;16.83;100.00;96855.47;30001;983;1881;-66
2022/08/28 00:55:40;;;;;;;;;;;;;;;16.83;100.00;96858.22;30001;983;1876;-65
2022/08/28 00:56:12;;;;;;;;;;;;;;;16.83;100.00;96847.25;30001;983;1859;-66
2022/08/28 00:56:43;;;;;;;;;;;;;;;16.83;100.00;96858.22;30001;982;1872;-66
2022/08/28 00:57:17;;;;;;;;;;;;;;;16.84;100.00;96848.88;30001;982;1881;-66
2022/08/28 00:57:55;;;;;;;;;;;;;;;16.83;100.00;96850.81;30001;982;1855;-65
2022/08/28 00:58:26;;;;;;;;;;;;;;;16.84;100.00;96848.88;30001;982;1877;-66
2022/08/28 00:59:01;;;;;;;;;;;;;;;16.83;100.00;96848.06;30001;982;1877;-66
2022/08/28 00:59:36;;;;;;;;;;;;;;;16.86;100.00;96854.81;30001;983;1845;-65
2022/08/28 01:00:08;;;;;;;;;;;;;;;16.85;100.00;96845.78;30001;983;1795;-65
2022/08/28 01:00:40;;;;;;;;;;;;;;;16.86;100.00;96847.41;30001;983;1880;-65
2022/08/28 01:01:12;;;;;;;;;;;;;;;16.86;100.00;96843.84;30001;983;1854;-66
2022/08/28 01:01:44;;;;;;;;;;;;;;;16.86;100.00;96843.84;30001;983;1854;-65
2022/08/28 01:02:15;;;;;;;;;;;;;;;16.85;100.00;96845.00;30001;983;1876;-67
2022/08/28 01:02:46;;;;;;;;;;;;;;;16.87;100.00;96848.19;30001;983;1881;-65
2022/08/28 01:03:16;;;;;;;;;;;;;;;16.85;100.00;96845.78;30001;983;1877;-65
2022/08/28 01:03:47;;;;;;;;;;;;;;;16.87;100.00;96842.72;30001;983;1881;-62
2022/08/28 01:04:20;;;;;;;;;;;;;;;16.85;100.00;96845.00;30001;982;1877;-66
2022/08/28 01:04:53;;;;;;;;;;;;;;;16.86;100.00;96841.91;30001;982;1881;-66
2022/08/28 01:05:27;;;;;;;;;;;;;;;16.85;100.00;96845.78;30001;982;1877;-66
2022/08/28 01:05:58;;;;;;;;;;;;;;;16.85;100.00;96850.47;30001;982;1881;-68
2022/08/28 01:06:29;;;;;;;;;;;;;;;16.85;100.00;96845.00;30001;982;1780;-66
2022/08/28 01:07:04;;;;;;;;;;;;;;;16.85;100.00;96839.50;30001;983;1859;-66
2022/08/28 01:07:36;;;;;;;;;;;;;;;16.85;100.00;96845.00;30001;983;1872;-65
2022/08/28 01:08:07;;;;;;;;;;;;;;;16.85;100.00;96839.50;30001;983;1880;-67
2022/08/28 01:08:39;;;;;;;;;;;;;;;16.83;100.00;96839.84;30001;983;1876;-66
2022/08/28 01:09:14;;;;;;;;;;;;;;;16.84;100.00;96837.91;30001;983;1881;-66
2022/08/28 01:09:47;;;;;;;;;;;;;;;16.83;100.00;96842.59;30001;983;1876;-65
2022/08/28 01:10:22;;;;;;;;;;;;;;;16.84;100.00;96852.41;30001;983;1851;-66
2022/08/28 01:10:55;;;;;;;;;;;;;;;16.84;100.00;96854.34;30001;983;1877;-68
2022/08/28 01:11:27;;;;;;;;;;;;;;;16.82;100.00;96846.47;30001;983;1881;-66
2022/08/28 01:12:02;;;;;;;;;;;;;;;16.82;100.00;96845.66;30001;982;1877;-65
2022/08/28 01:12:33;;;;;;;;;;;;;;;16.83;100.00;96850.81;30001;982;1859;-65
2022/08/28 01:13:04;;;;;;;;;;;;;;;16.82;100.00;96845.66;30001;982;1850;-64
2022/08/28 01:13:38;;;;;;;;;;;;;;;16.83;100.00;96852.75;30001;982;1881;-66
2022/08/28 01:14:10;;;;;;;;;;;;;;;16.82;100.00;96851.94;30001;982;1877;-66
2022/08/28 01:14:44;;;;;;;;;;;;;;;16.82;100.00;96845.66;30001;983;1880;-66
2022/08/28 01:15:17;;;;;;;;;;;;;;;16.82;100.00;96851.13;30001;983;1876;-66
2022/08/28 01:15:49;;;;;;;;;;;;;;;16.82;100.00;96851.13;30001;983;1880;-65
2022/08/28 01:16:21;;;;;;;;;;;;;;;16.81;100.00;96844.03;30001;983;1876;-66
2022/08/28 01:16:56;;;;;;;;;;;;;;;16.81;100.00;96844.03;30001;983;1881;-65
2022/08/28 01:17:30;;;;;;;;;;;;;;;16.82;100.00;96848.41;30001;983;1876;-67
2022/08/28 01:18:03;;;;;;;;;;;;;;;16.81;100.00;96849.53;30001;983;1881;-65
2022/08/28 01:18:34;;;;;;;;;;;;;;;16.80;100.00;96848.72;30001;982;1854;-66
2022/08/28 01:19:08;;;;;;;;;;;;;;;16.81;100.00;96852.28;30001;986;1877;-65
2022/08/28 01:19:43;;;;;;;;;;;;;;;16.81;100.00;96844.03;30001;982;1855;-66
2022/08/28 01:20:17;;;;;;;;;;;;;;;16.81;100.00;96852.28;30001;982;1877;-66
2022/08/28 01:20:55;;;;;;;;;;;;;;;16.80;100.00;96847.91;30001;982;1877;-64
2022/08/28 01:21:35;;;;;;;;;;;;;;;16.79;100.00;96846.31;30001;982;1881;-66
2022/08/28 01:22:36;;;;;;;;;;;;;;;16.78;100.00;96851.00;30001;983;1876;-64
2022/08/28 01:23:32;;;;;;;;;;;;;;;16.78;100.00;96850.19;30001;983;1820;-66
2022/08/28 01:24:06;;;;;;;;;;;;;;;16.76;100.00;96856.00;30001;983;1867;-66
2022/08/28 01:24:38;;;;;;;;;;;;;;;16.75;100.00;96857.94;30001;983;1859;-64
2022/08/28 01:25:12;;;;;;;;;;;;;;;16.75;100.00;96851.66;30001;983;1872;-65
2022/08/28 01:25:43;;;;;;;;;;;;;;;16.74;100.00;96856.34;30001;983;1881;-64
2022/08/28 01:26:13;;;;;;;;;;;;;;;16.74;100.00;96856.34;30001;982;1876;-64
2022/08/28 01:26:44;;;;;;;;;;;;;;;16.73;100.00;96854.72;30001;982;1881;-66
2022/08/28 01:27:15;;;;;;;;;;;;;;;16.74;100.00;96852.78;30001;982;1855;-62
2022/08/28 01:27:46;;;;;;;;;;;;;;;16.73;100.00;96849.25;30001;982;1877;-66
2022/08/28 01:28:17;;;;;;;;;;;;;;;16.73;100.00;96843.78;30001;982;1877;-66
2022/08/28 01:28:48;;;;;;;;;;;;;;;16.72;100.00;96852.31;30001;982;1881;-66
2022/08/28 01:29:19;;;;;;;;;;;;;;;16.71;100.00;96857.00;30001;983;1876;-65
2022/08/28 01:29:50;;;;;;;;;;;;;;;16.71;100.00;96857.00;30001;983;1880;-66
2022/08/28 01:30:22;;;;;;;;;;;;;;;16.70;100.00;96849.91;30001;983;1876;-66
2022/08/28 01:30:53;;;;;;;;;;;;;;;16.69;100.00;96853.78;30001;983;1880;-66
2022/08/28 01:31:26;;;;;;;;;;;;;;;16.67;100.00;96850.56;30001;983;1876;-65
2022/08/28 01:31:58;;;;;;;;;;;;;;;16.68;100.00;96849.44;30001;983;1881;-66
2022/08/28 01:32:33;;;;;;;;;;;;;;;16.68;100.00;96846.72;30001;983;1854;-66
2022/08/28 01:33:04;;;;;;;;;;;;;;;16.66;100.00;96851.72;30001;983;1876;-66
2022/08/28 01:33:36;;;;;;;;;;;;;;;16.65;100.00;96857.53;30001;982;1877;-66
2022/08/28 01:34:08;;;;;;;;;;;;;;;16.63;100.00;96860.56;30001;982;1881;-62
2022/08/28 01:34:39;;;;;;;;;;;;;;;16.61;100.00;96846.44;30001;982;1877;-66
2022/08/28 01:35:13;;;;;;;;;;;;;;;16.60;100.00;96844.81;30001;982;1881;-65
2022/08/28 01:35:46;;;;;;;;;;;;;;;16.59;100.00;96843.22;30001;982;1877;-66
2022/08/28 01:36:17;;;;;;;;;;;;;;;16.59;100.00;96848.69;30001;982;1793;-64
2022/08/28 01:36:48;;;;;;;;;;;;;;;16.58;100.00;96847.09;30001;982;1855;-66
2022/08/28 01:37:19;;;;;;;;;;;;;;;16.56;100.00;96846.63;30001;983;1876;-65
2022/08/28 01:37:51;;;;;;;;;;;;;;;16.55;100.00;96853.22;30001;983;1876;-65
2022/08/28 01:38:22;;;;;;;;;;;;;;;16.54;100.00;96843.41;30001;983;1859;-67
2022/08/28 01:38:55;;;;;;;;;;;;;;;16.55;100.00;96847.75;30001;983;1872;-66
2022/08/28 01:39:26;;;;;;;;;;;;;;;16.53;100.00;96847.28;30001;983;1881;-67
2022/08/28 01:39:59;;;;;;;;;;;;;;;16.52;100.00;96847.59;30001;983;1876;-67
2022/08/28 01:40:38;;;;;;;;;;;;;;;16.51;100.00;96846.81;30001;983;1881;-66
2022/08/28 01:41:10;;;;;;;;;;;;;;;16.49;100.00;96838.13;30001;982;1877;-66
2022/08/28 01:41:43;;;;;;;;;;;;;;;16.49;100.00;96843.59;30001;982;1881;-65
2022/08/28 01:42:15;;;;;;;;;;;;;;;16.49;100.00;96840.84;30001;982;1855;-67
2022/08/28 01:42:46;;;;;;;;;;;;;;;16.49;100.00;96843.59;30001;982;1877;-66
2022/08/28 01:43:18;;;;;;;;;;;;;;;16.50;100.00;96839.72;30001;982;1877;-64
2022/08/28 01:43:52;;;;;;;;;;;;;;;16.49;100.00;96843.59;30001;982;1859;-66
2022/08/28 01:44:28;;;;;;;;;;;;;;;16.48;100.00;96847.47;30001;983;1872;-64
2022/08/28 01:45:00;;;;;;;;;;;;;;;16.46;100.00;96844.25;30001;983;1880;-66
2022/08/28 01:45:36;;;;;;;;;;;;;;;16.46;100.00;96844.25;30001;983;1876;-65
2022/08/28 01:46:08;;;;;;;;;;;;;;;16.45;100.00;96837.19;30001;983;1881;-66
2022/08/28 01:46:40;;;;;;;;;;;;;;;16.45;100.00;96847.31;30001;983;1876;-67
2022/08/28 01:47:11;;;;;;;;;;;;;;;16.45;100.00;96842.66;30001;983;1881;-64
2022/08/28 01:47:43;;;;;;;;;;;;;;;16.43;100.00;96844.91;30001;983;1876;-66
2022/08/28 01:48:14;;;;;;;;;;;;;;;16.44;100.00;96841.03;30001;983;1881;-65
2022/08/28 01:48:46;;;;;;;;;;;;;;;16.44;100.00;96841.03;30001;982;1738;-65
2022/08/28 01:49:17;;;;;;;;;;;;;;;16.43;100.00;96851.19;30001;982;1877;-65
2022/08/28 01:49:48;;;;;;;;;;;;;;;16.42;100.00;96837.84;30001;982;1877;-65
2022/08/28 01:50:20;;;;;;;;;;;;;;;16.42;100.00;96843.31;30001;982;1881;-66
2022/08/28 01:50:51;;;;;;;;;;;;;;;16.41;100.00;96842.50;30001;982;1877;-64
2022/08/28 01:51:22;;;;;;;;;;;;;;;16.41;100.00;96849.91;30001;983;1880;-66
2022/08/28 01:51:53;;;;;;;;;;;;;;;16.40;100.00;96840.09;30001;983;1876;-66
2022/08/28 01:52:24;;;;;;;;;;;;;;;16.40;100.00;96837.34;30001;986;1855;-64
2022/08/28 01:52:55;;;;;;;;;;;;;;;16.39;100.00;96850.25;30001;983;1880;-65
2022/08/28 01:53:27;;;;;;;;;;;;;;;16.38;100.00;96847.84;30001;983;1881;-64
2022/08/28 01:53:58;;;;;;;;;;;;;;;16.39;100.00;96849.44;30001;983;1885;-65
2022/08/28 01:54:29;;;;;;;;;;;;;;;16.38;100.00;96848.66;30001;983;1881;-65
2022/08/28 01:54:59;;;;;;;;;;;;;;;16.38;100.00;96847.84;30001;983;1885;-64
2022/08/28 01:55:34;;;;;;;;;;;;;;;16.38;100.00;96853.31;30001;983;1881;-65
2022/08/28 01:56:07;;;;;;;;;;;;;;;16.38;100.00;96847.84;30001;983;1863;-65
2022/08/28 01:56:39;;;;;;;;;;;;;;;16.38;100.00;96842.38;30001;982;1876;-65
2022/08/28 01:57:10;;;;;;;;;;;;;;;16.38;100.00;96845.09;30001;982;1885;-65
2022/08/28 01:57:43;;;;;;;;;;;;;;;16.40;100.00;96851.06;30001;982;1881;-65
2022/08/28 01:58:14;;;;;;;;;;;;;;;16.40;100.00;96851.06;30001;982;1886;-65
2022/08/28 01:58:47;;;;;;;;;;;;;;;16.38;100.00;96851.38;30001;983;1880;-66
2022/08/28 01:59:18;;;;;;;;;;;;;;;16.39;100.00;96852.19;30001;983;1885;-66
2022/08/28 01:59:49;;;;;;;;;;;;;;;16.39;100.00;96855.72;30001;983;1880;-64
2022/08/28 02:00:24;;;;;;;;;;;;;;;16.40;100.00;96851.06;30001;967;1909;-65
2022/08/28 02:00:56;;;;;;;;;;;;;;;16.42;100.00;96857.00;30001;985;1880;-66
2022/08/28 02:01:27;;;;;;;;;;;;;;;16.40;100.00;96851.06;30001;983;1863;-64
2022/08/28 02:01:58;;;;;;;;;;;;;;;16.39;100.00;96855.72;30001;983;1876;-66
2022/08/28 02:02:30;;;;;;;;;;;;;;;16.40;100.00;96851.84;30001;983;1885;-64
2022/08/28 02:03:01;;;;;;;;;;;;;;;16.42;100.00;96854.25;30001;983;1881;-66
2022/08/28 02:03:35;;;;;;;;;;;;;;;16.41;100.00;96858.13;30001;983;1885;-66
2022/08/28 02:04:06;;;;;;;;;;;;;;;16.43;100.00;96858.59;30001;982;1881;-65
2022/08/28 02:04:37;;;;;;;;;;;;;;;16.43;100.00;96855.88;30001;982;1885;-64
2022/08/28 02:05:09;;;;;;;;;;;;;;;16.43;100.00;96855.88;30001;982;1859;-65
2022/08/28 02:05:40;;;;;;;;;;;;;;;16.45;100.00;96859.09;30001;982;1881;-65
2022/08/28 02:06:11;;;;;;;;;;;;;;;16.46;100.00;96857.16;30001;982;1881;-65
2022/08/28 02:06:42;;;;;;;;;;;;;;;16.46;100.00;96860.69;30001;983;1885;-65
2022/08/28 02:07:13;;;;;;;;;;;;;;;16.47;100.00;96862.28;30001;983;1880;-66
2022/08/28 02:07:44;;;;;;;;;;;;;;;16.47;100.00;96862.28;30001;983;1885;-64
2022/08/28 02:08:15;;;;;;;;;;;;;;;16.47;100.00;96859.56;30001;983;1880;-65
2022/08/28 02:08:48;;;;;;;;;;;;;;;16.48;100.00;96861.16;30001;983;1863;-65
2022/08/28 02:09:19;;;;;;;;;;;;;;;16.49;100.00;96854.56;30001;983;1876;-65
2022/08/28 02:09:50;;;;;;;;;;;;;;;16.49;100.00;96854.56;30001;983;1885;-66
2022/08/28 02:10:24;;;;;;;;;;;;;;;16.49;100.00;96854.56;30001;983;1881;-65
2022/08/28 02:10:55;;;;;;;;;;;;;;;16.50;100.00;96853.41;30001;983;1863;-65
2022/08/28 02:11:28;;;;;;;;;;;;;;;16.50;100.00;96856.16;30001;982;1877;-67
2022/08/28 02:11:59;;;;;;;;;;;;;;;16.50;100.00;96856.16;30001;982;1885;-66
2022/08/28 02:12:30;;;;;;;;;;;;;;;16.51;100.00;96852.28;30001;982;1881;-66
2022/08/28 02:13:01;;;;;;;;;;;;;;;16.52;100.00;96853.87;30001;986;1876;-66
2022/08/28 02:13:34;;;;;;;;;;;;;;;16.52;100.00;96864.84;30001;982;1886;-65
2022/08/28 02:14:05;;;;;;;;;;;;;;;16.53;100.00;96860.97;30001;983;1858;-67
2022/08/28 02:14:37;;;;;;;;;;;;;;;16.54;100.00;96859.84;30001;983;1880;-66
2022/08/28 02:15:08;;;;;;;;;;;;;;;16.54;100.00;96861.78;30001;983;1880;-66
2022/08/28 02:15:41;;;;;;;;;;;;;;;16.54;100.00;96857.09;30001;983;1885;-66
2022/08/28 02:16:11;;;;;;;;;;;;;;;16.55;100.00;96864.19;30001;983;1881;-65
2022/08/28 02:16:42;;;;;;;;;;;;;;;16.56;100.00;96865.78;30001;983;1885;-66
2022/08/28 02:17:13;;;;;;;;;;;;;;;16.57;100.00;96861.13;30001;983;1881;-66
2022/08/28 02:17:44;;;;;;;;;;;;;;;16.57;100.00;96861.91;30001;983;1885;-66
2022/08/28 02:18:16;;;;;;;;;;;;;;;16.57;100.00;96856.44;30001;983;1881;-66
2022/08/28 02:18:47;;;;;;;;;;;;;;;16.58;100.00;96868.19;30001;982;1864;-66
2022/08/28 02:19:19;;;;;;;;;;;;;;;16.60;100.00;96863.19;30001;982;1855;-65
2022/08/28 02:19:50;;;;;;;;;;;;;;;16.60;100.00;96861.25;30001;982;1885;-66
2022/08/28 02:20:22;;;;;;;;;;;;;;;16.60;100.00;96858.53;30001;982;1881;-65
2022/08/28 02:20:53;;;;;;;;;;;;;;;16.61;100.00;96865.59;30001;982;1886;-66
2022/08/28 02:21:25;;;;;;;;;;;;;;;16.62;100.00;96859.00;30001;983;1880;-68
2022/08/28 02:21:56;;;;;;;;;;;;;;;16.63;100.00;96863.31;30001;983;1885;-66
2022/08/28 02:22:27;;;;;;;;;;;;;;;16.63;100.00;96857.81;30001;983;1880;-65
2022/08/28 02:22:58;;;;;;;;;;;;;;;16.63;100.00;96855.09;30001;983;1885;-66
2022/08/28 02:23:29;;;;;;;;;;;;;;;16.64;100.00;96859.47;30001;983;1881;-64
2022/08/28 02:24:00;;;;;;;;;;;;;;;16.65;100.00;96857.53;30001;983;1885;-66
2022/08/28 02:24:31;;;;;;;;;;;;;;;16.65;100.00;96847.38;30001;983;1859;-65
2022/08/28 02:25:03;;;;;;;;;;;;;;;16.66;100.00;96856.38;30001;983;1881;-65
2022/08/28 02:25:34;;;;;;;;;;;;;;;16.65;100.00;96855.59;30001;982;1881;-66
2022/08/28 02:26:06;;;;;;;;;;;;;;;16.67;100.00;96850.56;30001;982;1885;-66
2022/08/28 02:26:36;;;;;;;;;;;;;;;16.67;100.00;96856.06;30001;982;1881;-66
2022/08/28 02:27:08;;;;;;;;;;;;;;;16.68;100.00;96851.38;30001;982;1885;-66
2022/08/28 02:27:39;;;;;;;;;;;;;;;16.68;100.00;96851.38;30001;982;1881;-66
2022/08/28 02:28:09;;;;;;;;;;;;;;;16.68;100.00;96851.38;30001;982;1886;-67
2022/08/28 02:28:41;;;;;;;;;;;;;;;16.71;100.00;96856.19;30001;982;1881;-66
2022/08/28 02:29:12;;;;;;;;;;;;;;;16.69;100.00;96847.50;30001;983;1863;-66
2022/08/28 02:29:43;;;;;;;;;;;;;;;16.68;100.00;96852.19;30001;983;1876;-65
2022/08/28 02:30:16;;;;;;;;;;;;;;;16.68;100.00;96843.16;30001;983;1885;-64
2022/08/28 02:30:47;;;;;;;;;;;;;;;16.67;100.00;96845.09;30001;983;1880;-66
2022/08/28 02:31:17;;;;;;;;;;;;;;;16.68;100.00;96846.72;30001;983;1885;-66
2022/08/28 02:31:48;;;;;;;;;;;;;;;16.69;100.00;96848.31;30001;983;1859;-65
2022/08/28 02:32:19;;;;;;;;;;;;;;;16.69;100.00;96853.00;30001;983;1881;-66
2022/08/28 02:32:50;;;;;;;;;;;;;;;16.70;100.00;96849.91;30001;983;1881;-64
2022/08/28 02:33:21;;;;;;;;;;;;;;;16.69;100.00;96848.31;30001;982;1885;-66
2022/08/28 02:33:52;;;;;;;;;;;;;;;16.68;100.00;96849.44;30001;982;1881;-65
2022/08/28 02:34:22;;;;;;;;;;;;;;;16.70;100.00;96852.66;30001;982;1864;-61
2022/08/28 02:34:54;;;;;;;;;;;;;;;16.70;100.00;96849.91;30001;982;1877;-66
2022/08/28 02:35:25;;;;;;;;;;;;;;;16.70;100.00;96852.66;30001;982;1886;-66
2022/08/28 02:35:59;;;;;;;;;;;;;;;16.70;100.00;96860.87;30001;982;1881;-66
2022/08/28 02:36:30;;;;;;;;;;;;;;;16.71;100.00;96858.94;30001;983;1884;-66
2022/08/28 02:37:01;;;;;;;;;;;;;;;16.71;100.00;96856.19;30001;983;1880;-67
2022/08/28 02:37:32;;;;;;;;;;;;;;;16.71;100.00;96861.69;30001;983;1885;-66
2022/08/28 02:38:03;;;;;;;;;;;;;;;16.71;100.00;96856.19;30001;983;1859;-65
2022/08/28 02:38:35;;;;;;;;;;;;;;;16.71;100.00;96861.69;30001;983;1881;-65
2022/08/28 02:39:06;;;;;;;;;;;;;;;16.71;100.00;96854.25;30001;983;1880;-65
2022/08/28 02:39:37;;;;;;;;;;;;;;;16.72;100.00;96858.59;30001;983;1885;-66
2022/08/28 02:40:08;;;;;;;;;;;;;;;16.72;100.00;96857.81;30001;983;1881;-66
2022/08/28 02:40:40;;;;;;;;;;;;;;;16.72;100.00;96858.59;30001;982;1885;-62
2022/08/28 02:41:11;;;;;;;;;;;;;;;16.71;100.00;96857.00;30001;982;1881;-66
2022/08/28 02:41:42;;;;;;;;;;;;;;;16.72;100.00;96861.34;30001;982;1885;-66
2022/08/28 02:42:14;;;;;;;;;;;;;;;16.73;100.00;96864.88;30001;982;1859;-64
2022/08/28 02:42:45;;;;;;;;;;;;;;;16.72;100.00;96858.59;30001;982;1881;-66
2022/08/28 02:43:16;;;;;;;;;;;;;;;16.72;100.00;96866.81;30001;982;1881;-66
2022/08/28 02:43:47;;;;;;;;;;;;;;;16.72;100.00;96864.09;30001;982;1886;-66
2022/08/28 02:44:17;;;;;;;;;;;;;;;16.71;100.00;96867.97;30001;983;1880;-66
2022/08/28 02:44:48;;;;;;;;;;;;;;;16.72;100.00;96868.75;30001;983;1885;-66
2022/08/28 02:45:19;;;;;;;;;;;;;;;16.72;100.00;96864.09;30001;983;1881;-66
2022/08/28 02:45:51;;;;;;;;;;;;;;;16.73;100.00;96862.16;30001;983;1885;-66
2022/08/28 02:46:25;;;;;;;;;;;;;;;16.72;100.00;96864.09;30001;983;1859;-64
2022/08/28 02:46:56;;;;;;;;;;;;;;;16.72;100.00;96858.59;30001;983;1881;-66
2022/08/28 02:47:26;;;;;;;;;;;;;;;16.73;100.00;96864.88;30001;983;1881;-66
2022/08/28 02:48:00;;;;;;;;;;;;;;;16.73;100.00;96865.69;30001;983;1885;-67
2022/08/28 02:48:32;;;;;;;;;;;;;;;16.73;100.00;96862.16;30001;982;1881;-65
2022/08/28 02:49:03;;;;;;;;;;;;;;;16.74;100.00;96858.28;30001;982;1885;-66
2022/08/28 02:49:34;;;;;;;;;;;;;;;16.74;100.00;96856.34;30001;982;1881;-66
2022/08/28 02:50:06;;;;;;;;;;;;;;;16.74;100.00;96861.81;30001;982;1864;-64
2022/08/28 02:50:37;;;;;;;;;;;;;;;16.74;100.00;96859.06;30001;982;1877;-66
2022/08/28 02:51:11;;;;;;;;;;;;;;;16.74;100.00;96861.81;30001;982;1886;-66
2022/08/28 02:51:42;;;;;;;;;;;;;;;16.73;100.00;96857.47;30001;983;1880;-65
2022/08/28 02:52:13;;;;;;;;;;;;;;;16.74;100.00;96856.34;30001;983;1885;-66
2022/08/28 02:52:45;;;;;;;;;;;;;;;16.73;100.00;96854.72;30001;983;1880;-66